ADDS METAR Data INFO
IDs: Format: Raw Decoded Include TAF

Data at: 1552 UTC 12 Dec 2017

KHSV 121453Z 32010KT 10SM OVC037 08/02 A3004 RMK AO2 SLP170 T00830017 51026
KHSV 121353Z 30007KT 10SM OVC041 08/02 A3001 RMK AO2 SLP163 T00780017
KHSV 121253Z 30006KT 10SM BKN048 OVC055 07/01 A2999 RMK AO2 SLP157 T00670011
KHSV 121153Z 30005KT 10SM SCT055 SCT160 06/M01 A2996 RMK AO2 SLP145 T00561011 10083 20056 53011
KHSV 121053Z AUTO 31007KT 10SM CLR 07/M01 A2994 RMK AO2 SLP137 T00671006
KHSV 120953Z AUTO 29005KT 10SM CLR 07/M01 A2993 RMK AO2 SLP133 T00671006
KHSV 120853Z AUTO 28004KT 10SM CLR 07/01 A2992 RMK AO2 SLP131 T00670006 53001
KHSV 120753Z AUTO 31005KT 10SM CLR 08/01 A2992 RMK AO2 SLP130 T00780011
KHSV 120653Z AUTO 29006KT 10SM CLR 08/01 A2991 RMK AO2 SLP127 T00830011
KHSV 120553Z 00000KT 10SM FEW250 07/01 A2992 RMK AO2 SLP131 T00670011 10094 20067 401671011 56006
KHSV 120453Z 28005KT 10SM FEW250 08/01 A2992 RMK AO2 SLP132 T00830011
KHSV 120353Z 22005KT 10SM CLR 09/01 A2993 RMK AO2 SLP134 T00890011
KHSV 120253Z 22007KT 10SM CLR 09/02 A2994 RMK AO2 SLP139 T00890017 55005
KHSV 120153Z 20006KT 10SM CLR 09/01 A2994 RMK AO2 SLP139 T00890011
KHSV 120053Z 19007KT 10SM FEW200 08/01 A2995 RMK AO2 SLP142 T00830011
KHSV 112353Z 19007KT 10SM FEW200 09/01 A2995 RMK AO2 SLP144 T00940011 10167 20089 58015
KHSV 112253Z 21007KT 10SM FEW200 12/01 A2998 RMK AO2 SLP153 T01170006
KHSV 112153Z 22010KT 10SM CLR 16/01 A2998 RMK AO2 SLP151 T01560006
KHSV 112053Z 22011KT 10SM CLR 16/01 A3000 RMK AO2 SLP157 T01610011 56031
KHSV 111953Z 24007KT 10SM CLR 16/02 A3002 RMK AO2 SLP166 T01560017
KHSV 111853Z 20008KT 10SM CLR 14/01 A3005 RMK AO2 SLP176 T01440011
KHSV 111753Z 19006KT 10SM CLR 13/02 A3009 RMK AO2 SLP190 T01280022 10128 21011 58026
KHSV 111653Z 17004KT 10SM CLR 10/01 A3013 RMK AO2 SLP206 T01000011
KHSV 111553Z 24005KT 10SM CLR 09/01 A3017 RMK AO2 SLP217 T00890006
KHSV 111453Z 18005KT 10SM CLR 05/01 A3017 RMK AO2 SLP218 T00500006 55003
KHSV 111353Z 00000KT 10SM CLR 02/M01 A3017 RMK AO2 SLP219 T00171006
KHSV 111253Z 13004KT 10SM CLR M01/M03 A3017 RMK AO2 SLP221 T10111028 $
KHSV 111153Z 11004KT 10SM CLR 00/M03 A3018 RMK AO2 SLP222 T00001028 10017 21011 55003 $
KHSV 111053Z AUTO 11003KT 10SM CLR M01/M03 A3018 RMK AO2 SLP221 T10061028 $
KHSV 110953Z AUTO 11003KT 10SM CLR 00/M03 A3017 RMK AO2 SLP219 T00001033 $
KHSV 110853Z AUTO 10003KT 10SM CLR 00/M03 A3019 RMK AO2 SLP224 T00001028 55007 $
KHSV 110753Z AUTO 11004KT 10SM CLR 00/M03 A3019 RMK AO2 SLP223 T00001033 $
KHSV 110653Z AUTO 11004KT 10SM CLR 01/M03 A3019 RMK AO2 SLP225 T00061033 $
KHSV 110553Z 13004KT 10SM CLR 01/M03 A3021 RMK AO2 SLP231 T00061028 10056 20006 401001050 58008 $
KHSV 110453Z 13003KT 10SM CLR 01/M03 A3023 RMK AO2 SLP240 T00061028 $
KHSV 110353Z 14005KT 10SM CLR 01/M03 A3023 RMK AO2 SLP241 T00061028 $